»·PEaware :: ASA103 KSAN-KGJT

ASA103 :: KSAN-KGJT

FLIGHT INFORMATION

Flight Status: Arrived
Operator:
Alaska Airlines
More flights by this operator :: More flights under this callsign
Pilot: Andrew C. (28419)
Aircraft: BOEING 737-800
(B738)
More flights by this aircraft type
Origin: KSAN San Diego Intl-Lindbergh
United States
Destination: KGJT Grand Junction Regl
United States
More flights between these airports :: More routes between these airports
Route: ZZOOO2 MTBAL PGS JNC
File this flight plan on PilotEdge
Remarks: RMK / SIMBRIEF
Altitude:
(Current/Filed)
35,000ft
Speed:
(Current/Filed)
469kts
Departed: 11-Oct-20 12:05 PM
Arrived: 11-Oct-20 01:40 PM
Distance/Time
Traveled:
569nm/1:35
Distance/Time
To Go:
Arrived

Flight Plot

Page will automatically refresh every two minutes.

Flight plan parsing failed; only flown route is shown


Map Options




Map Legend


Flown Route
Filed Route
Departure Airport
Arrival Airport
Navaid (VOR, NDB)
Fix

Horizontal Profiles

Position Reports

Time Latitude Longitude Heading Altitude Ground
Speed
11-Oct-20 11:38 32.732928 -117.203395 257 27ft 0kts
11-Oct-20 11:39 32.732928 -117.203395 257 27ft 0kts
11-Oct-20 11:40 32.732928 -117.203395 257 27ft 0kts
11-Oct-20 11:41 32.732928 -117.203395 257 27ft 0kts
11-Oct-20 11:42 32.732928 -117.203395 257 27ft 0kts
11-Oct-20 11:43 32.732928 -117.203395 257 27ft 0kts
11-Oct-20 11:44 32.732928 -117.203395 257 27ft 0kts
11-Oct-20 11:45 32.732928 -117.203395 257 27ft 0kts
11-Oct-20 11:46 32.732928 -117.203395 257 27ft 0kts
11-Oct-20 11:47 32.732928 -117.203395 257 27ft 0kts
11-Oct-20 11:48 32.732928 -117.203395 257 27ft 0kts
11-Oct-20 11:49 32.732928 -117.203395 257 27ft 0kts
11-Oct-20 11:50 32.732928 -117.203395 257 27ft 0kts
11-Oct-20 11:51 32.732928 -117.203395 257 27ft 0kts
11-Oct-20 11:52 32.732928 -117.203395 257 27ft 0kts
11-Oct-20 11:52 32.732928 -117.203395 257 27ft 0kts
11-Oct-20 11:53 32.732928 -117.203395 257 27ft 0kts
11-Oct-20 11:54 32.733059 -117.202847 254 27ft 2kts
11-Oct-20 11:55 32.732991 -117.202498 342 27ft 0kts
11-Oct-20 11:56 32.732991 -117.202498 342 27ft 0kts
11-Oct-20 11:57 32.734082 -117.202681 15 25ft 6kts
11-Oct-20 11:58 32.734786 -117.202446 17 24ft 12kts
11-Oct-20 11:59 32.733913 -117.195382 105 27ft 26kts
11-Oct-20 12:00 32.731928 -117.187163 106 24ft 27kts
11-Oct-20 12:01 32.729583 -117.177553 106 24ft 20kts
11-Oct-20 12:02 32.729507 -117.176711 76 24ft 0kts
11-Oct-20 12:03 32.729507 -117.176710 76 24ft 0kts
11-Oct-20 12:04 32.730789 -117.178205 286 25ft 59kts
11-Oct-20 12:05 32.742021 -117.225530 286 1711ft 191kts
11-Oct-20 12:06 32.757304 -117.298911 261 4145ft 259kts
11-Oct-20 12:07 32.696910 -117.320912 143 7743ft 285kts
11-Oct-20 12:08 32.641329 -117.251041 120 10557ft 322kts
11-Oct-20 12:09 32.621365 -117.138846 93 12778ft 362kts
11-Oct-20 12:10 32.611080 -117.017479 92 15312ft 378kts
11-Oct-20 12:11 32.607850 -116.891167 75 17557ft 386kts
11-Oct-20 12:12 32.648271 -116.776295 40 19629ft 380kts
11-Oct-20 12:13 32.741153 -116.719006 19 21464ft 383kts
11-Oct-20 12:14 32.840346 -116.670646 19 23168ft 391kts
11-Oct-20 12:15 32.941868 -116.620939 19 24763ft 398kts
11-Oct-20 12:16 33.044098 -116.570014 21 26262ft 402kts
11-Oct-20 12:17 33.142527 -116.518287 21 27584ft 405kts
11-Oct-20 12:18 33.246057 -116.464024 21 28830ft 409kts
11-Oct-20 12:19 33.349458 -116.408325 26 30221ft 407kts
11-Oct-20 12:20 33.433622 -116.317362 46 31483ft 414kts
11-Oct-20 12:21 33.503681 -116.207597 48 32624ft 415kts
11-Oct-20 12:22 33.571520 -116.095725 48 33632ft 415kts
11-Oct-20 12:23 33.646169 -115.992563 40 34574ft 408kts
11-Oct-20 12:24 33.726712 -115.895513 40 35000ft 418kts
11-Oct-20 12:25 33.810648 -115.794950 40 34998ft 434kts
11-Oct-20 12:26 33.891980 -115.697163 39 35003ft 406kts
11-Oct-20 12:27 33.972536 -115.600334 39 34998ft 411kts
11-Oct-20 12:28 34.053081 -115.503168 39 35000ft 413kts
11-Oct-20 12:29 34.134313 -115.404893 39 35001ft 413kts
11-Oct-20 12:30 34.215110 -115.306857 39 35000ft 412kts
11-Oct-20 12:31 34.295951 -115.208455 39 34999ft 413kts
11-Oct-20 12:32 34.376949 -115.109593 39 34999ft 413kts
11-Oct-20 12:33 34.457344 -115.011109 39 35000ft 412kts
11-Oct-20 12:34 34.537903 -114.912215 39 35000ft 413kts
11-Oct-20 12:35 34.618336 -114.813176 39 35000ft 412kts
11-Oct-20 12:36 34.698668 -114.713863 39 35000ft 413kts
11-Oct-20 12:37 34.779070 -114.614410 39 35000ft 414kts
11-Oct-20 12:38 34.859170 -114.514956 39 35000ft 413kts
11-Oct-20 12:39 34.939620 -114.414764 38 34999ft 414kts
11-Oct-20 12:40 35.020125 -114.314178 39 34999ft 416kts
11-Oct-20 12:41 35.100385 -114.213534 39 35000ft 417kts
11-Oct-20 12:42 35.181834 -114.111173 39 35000ft 419kts
11-Oct-20 12:43 35.262589 -114.009378 39 35000ft 421kts
11-Oct-20 12:44 35.342360 -113.908484 38 35000ft 419kts
11-Oct-20 12:45 35.422730 -113.806583 38 34999ft 421kts
11-Oct-20 12:46 35.503408 -113.703924 38 34999ft 421kts
11-Oct-20 12:47 35.584164 -113.600875 38 35000ft 422kts
11-Oct-20 12:48 35.664348 -113.496592 39 34999ft 423kts
11-Oct-20 12:49 35.744488 -113.390954 39 34999ft 421kts
11-Oct-20 12:50 35.824839 -113.286454 39 35000ft 421kts
11-Oct-20 12:51 35.905687 -113.181406 39 35000ft 421kts
11-Oct-20 12:52 35.985379 -113.077669 39 35000ft 420kts
11-Oct-20 12:53 36.065039 -112.973794 38 35136ft 431kts
11-Oct-20 12:54 36.140820 -112.874541 38 35164ft 429kts
11-Oct-20 12:55 36.223488 -112.765963 38 35192ft 428kts
11-Oct-20 12:56 36.306136 -112.657078 38 35191ft 428kts
11-Oct-20 12:57 36.387340 -112.549728 38 35192ft 427kts
11-Oct-20 12:58 36.468431 -112.442191 38 35192ft 427kts
11-Oct-20 12:59 36.549446 -112.334405 38 35184ft 428kts
11-Oct-20 13:00 36.630485 -112.226182 38 35175ft 428kts
11-Oct-20 13:01 36.712571 -112.116213 38 35173ft 429kts
11-Oct-20 13:02 36.794420 -112.006254 38 35144ft 432kts
11-Oct-20 13:03 36.876696 -111.895309 38 35089ft 431kts
11-Oct-20 13:04 36.959842 -111.782859 38 35055ft 434kts
11-Oct-20 13:05 37.042217 -111.671037 38 35054ft 436kts
11-Oct-20 13:06 37.124293 -111.559249 38 35055ft 438kts
11-Oct-20 13:07 37.206779 -111.446495 37 35103ft 438kts
11-Oct-20 13:08 37.288949 -111.333771 38 35153ft 439kts
11-Oct-20 13:09 37.371369 -111.220306 38 35155ft 440kts
11-Oct-20 13:10 37.453318 -111.107072 38 35155ft 439kts
11-Oct-20 13:11 37.535402 -110.993274 37 35138ft 439kts
11-Oct-20 13:12 37.617223 -110.879473 37 35121ft 440kts
11-Oct-20 13:13 37.699182 -110.765033 37 35118ft 439kts
11-Oct-20 13:14 37.780850 -110.650592 37 35120ft 438kts
11-Oct-20 13:15 37.862377 -110.535990 36 35129ft 440kts
11-Oct-20 13:16 37.943744 -110.421146 36 35136ft 439kts
11-Oct-20 13:17 38.024601 -110.306658 36 35138ft 440kts
11-Oct-20 13:18 38.106154 -110.190754 36 35138ft 441kts
11-Oct-20 13:19 38.187881 -110.074163 36 35137ft 441kts
11-Oct-20 13:20 38.269034 -109.957979 36 34539ft 439kts
11-Oct-20 13:22 38.350039 -109.841529 36 33539ft 440kts
11-Oct-20 13:23 38.431431 -109.724305 36 32336ft 446kts
11-Oct-20 13:24 38.513557 -109.605476 37 29515ft 441kts
11-Oct-20 13:25 38.591918 -109.491184 38 27483ft 430kts
11-Oct-20 13:26 38.672917 -109.373430 40 25322ft 435kts
11-Oct-20 13:27 38.753717 -109.255285 42 23191ft 452kts
11-Oct-20 13:28 38.833982 -109.137200 43 21059ft 429kts
11-Oct-20 13:29 38.910295 -109.023942 43 18998ft 411kts
11-Oct-20 13:30 38.982609 -108.913607 44 16954ft 396kts
11-Oct-20 13:31 39.052310 -108.806868 45 15154ft 376kts
11-Oct-20 13:32 39.048770 -108.676873 138 14668ft 405kts
11-Oct-20 13:33 38.985449 -108.561997 116 12730ft 388kts
11-Oct-20 13:34 38.942703 -108.435777 113 10868ft 363kts
11-Oct-20 13:35 38.970225 -108.334572 31 8974ft 314kts
11-Oct-20 13:36 39.030102 -108.373069 307 7476ft 241kts
11-Oct-20 13:37 39.066813 -108.427225 309 6440ft 155kts
11-Oct-20 13:37 39.087619 -108.461267 308 5818ft 131kts
11-Oct-20 13:39 39.114759 -108.507574 307 4972ft 135kts
11-Oct-20 13:39 39.126001 -108.528023 304 4812ft 23kts
11-Oct-20 13:40 39.126399 -108.530009 213 4812ft 0kts
11-Oct-20 13:41 39.126083 -108.530176 179 4812ft 9kts
11-Oct-20 13:42 39.123404 -108.525875 160 4812ft 11kts
11-Oct-20 13:43 39.122261 -108.526859 215 4812ft 0kts
11-Oct-20 13:44 39.122261 -108.526859 215 4812ft 0kts
11-Oct-20 13:45 39.122261 -108.526859 215 4813ft 0kts
11-Oct-20 13:46 39.122261 -108.526859 215 4813ft 0kts
11-Oct-20 13:47 39.122261 -108.526859 215 4813ft 0kts
11-Oct-20 13:48 39.122261 -108.526859 215 4813ft 0kts

Navigation Log

Ident Type
Flight plan parsing failed, navigation log unavailable